Date,TemperatureHighF,TemperatureAvgF,TemperatureLowF,DewpointHighF,DewpointAvgF,DewpointLowF,HumidityHigh,HumidityAvg,HumidityLow,PressureMaxIn,PressureMinIn,WindSpeedMaxMPH,WindSpeedAvgMPH,GustSpeedMaxMPH,PrecipitationSumIn
2013-3-1,41,31,25,26,23,16,93,72,52,0.00,40.00,6,2,10,0.00
2013-3-2,54,39,24,26,22,18,83,55,32,0.00,40.00,4,2,8,0.00
2013-3-3,47,38,31,34,26,22,91,62,41,0.00,40.00,19,5,31,0.08
2013-3-4,42,33,21,37,22,7,97,69,38,0.00,40.00,19,7,33,0.11
2013-3-5,48,29,14,9,6,-6,64,40,11,0.00,40.00,6,3,14,0.01
2013-3-6,59,40,25,22,10,-100,54,35,22,0.00,40.00,9,4,26,0.00
2013-3-7,61,50,39,23,15,9,43,26,13,0.00,40.00,12,5,20,0.00
2013-3-8,52,42,35,35,24,12,97,51,25,0.00,40.00,21,7,29,0.00
2013-3-9,35,33,29,34,28,13,98,84,49,0.00,40.00,19,8,29,0.02
2013-3-10,44,35,21,19,16,14,75,49,31,0.00,40.00,10,4,17,0.01
2013-3-11,47,36,24,24,21,17,76,55,36,0.00,40.00,16,6,23,0.00
2013-3-12,52,42,33,28,26,24,72,53,35,0.00,40.00,9,5,15,0.00
2013-3-13,59,44,31,30,25,20,73,49,22,0.00,40.00,13,3,16,0.00
2013-3-14,64,47,35,29,24,21,58,42,20,0.00,40.00,11,4,16,0.00
2013-3-15,64,49,38,29,26,23,58,42,21,0.00,40.00,14,5,23,0.00
2013-3-16,54,46,41,34,24,-100,60,45,37,0.00,40.00,22,5,36,0.00
2013-3-17,48,41,35,37,24,8,94,56,22,0.00,40.00,25,10,48,0.12
2013-3-18,48,38,28,15,11,8,51,34,21,0.00,40.00,20,8,33,0.01
2013-3-19,51,41,34,17,3,-10,39,23,8,0.00,40.00,8,3,18,0.00
2013-3-20,48,38,28,29,9,-1,64,32,20,0.00,40.00,6,4,14,0.00
2013-3-21,45,36,30,36,21,-100,96,65,37,0.00,40.00,12,5,29,0.38
2013-3-22,45,32,24,21,17,10,83,55,24,0.00,40.00,19,7,36,0.05
2013-3-23,28,24,18,15,10,6,70,55,42,0.00,40.00,18,9,28,0.00
2013-3-24,28,21,15,16,8,2,81,58,40,0.00,40.00,15,4,21,0.00
2013-3-25,41,25,12,8,2,-9,66,41,14,0.00,40.00,9,4,13,0.00
2013-3-26,58,39,25,18,11,6,46,32,18,0.00,40.00,13,5,27,0.00
2013-3-27,61,47,33,27,21,9,72,40,13,0.00,40.00,12,6,29,0.00
2013-3-28,64,59,47,23,18,14,38,20,16,0.00,40.00,11,6,16,0.00
2013-3-29,64,51,43,34,25,22,57,37,23,0.00,40.00,14,6,26,0.00
2013-3-30,64,50,37,31,26,12,71,44,13,0.00,40.00,15,4,25,0.00
2013-3-31,65,50,34,25,21,5,65,36,10,0.00,40.00,10,5,20,0.00